createdAt,value
2022-10-06T06:37:16.486Z,21.49
2022-10-06T06:42:10.508Z,21.5
2022-10-06T06:47:03.210Z,21.83
2022-10-06T06:51:55.905Z,21.91
2022-10-06T06:56:48.825Z,21.88
2022-10-06T07:01:41.401Z,21.9
2022-10-06T07:06:33.830Z,21.98
2022-10-06T07:11:25.997Z,21.77
2022-10-06T07:16:18.729Z,21.78
2022-10-06T07:21:11.372Z,21.74
2022-10-06T07:26:03.879Z,21.61
2022-10-06T07:30:56.246Z,21.71
2022-10-06T07:35:48.623Z,21.81
2022-10-06T07:40:46.125Z,21.84
2022-10-06T07:45:33.914Z,21.79
2022-10-06T07:50:26.321Z,21.92
2022-10-06T07:55:18.823Z,21.68
2022-10-06T08:00:11.236Z,21.81
2022-10-06T08:05:03.711Z,21.81
2022-10-06T08:09:56.124Z,21.75
2022-10-06T08:14:48.572Z,21.77
2022-10-06T08:19:41.281Z,21.78
2022-10-06T08:24:48.098Z,21.9
2022-10-06T08:29:25.928Z,21.87
2022-10-06T08:34:18.342Z,21.85
2022-10-06T08:39:10.863Z,21.82
2022-10-06T08:44:03.996Z,21.82
2022-10-06T08:48:56.551Z,21.79
2022-10-06T08:53:49.092Z,21.82
2022-10-06T08:58:41.370Z,21.83
2022-10-06T09:03:33.802Z,21.86
2022-10-06T09:08:26.343Z,21.85
2022-10-06T09:13:21.851Z,21.86
2022-10-06T09:18:11.404Z,21.95
2022-10-06T09:23:03.865Z,21.99
2022-10-06T09:27:56.049Z,21.99
2022-10-06T09:32:48.468Z,21.97
2022-10-06T09:37:40.801Z,21.99
2022-10-06T09:42:33.254Z,22.01
2022-10-06T09:47:25.724Z,21.99
2022-10-06T09:52:18.200Z,22.04
2022-10-06T09:57:10.748Z,22.02
2022-10-06T10:02:03.179Z,22.04
2022-10-06T10:06:55.465Z,22.01
2022-10-06T10:11:47.853Z,22.05
2022-10-06T10:16:40.531Z,21.96
2022-10-06T10:21:33.025Z,22.04
2022-10-06T10:26:25.544Z,22.11
2022-10-06T10:31:18.185Z,22.11
2022-10-06T10:36:10.886Z,22.11
2022-10-06T10:41:03.253Z,21.94
2022-10-06T10:45:55.661Z,22.02
2022-10-06T10:50:47.983Z,22.08
2022-10-06T10:55:40.520Z,22.16
2022-10-06T11:00:33.058Z,22.22
2022-10-06T11:05:26.729Z,22.18
2022-10-06T11:10:18.250Z,22.21
2022-10-06T11:15:10.591Z,22.18
2022-10-06T11:20:03.304Z,22.2
2022-10-06T11:24:56.048Z,22.29
2022-10-06T11:29:48.343Z,22.27
2022-10-06T11:34:40.869Z,22.36
2022-10-06T11:39:33.432Z,22.4
2022-10-06T11:44:25.943Z,22.31
2022-10-06T11:49:18.321Z,22.44
2022-10-06T11:54:10.796Z,22.47
2022-10-06T11:59:03.182Z,22.48
2022-10-06T12:03:55.855Z,22.45
2022-10-06T12:08:48.243Z,22.44
2022-10-06T12:18:33.414Z,22.47
2022-10-06T12:23:25.711Z,22.49
2022-10-06T12:28:18.260Z,22.54
2022-10-06T12:33:10.646Z,22.53
2022-10-06T12:38:03.206Z,22.56
2022-10-06T12:42:55.753Z,22.63
2022-10-06T12:47:48.551Z,22.67
2022-10-06T12:52:41.143Z,22.7
2022-10-06T13:02:26.334Z,22.78
2022-10-06T13:07:18.710Z,22.94
2022-10-06T13:12:11.073Z,23.02
2022-10-06T13:17:03.641Z,23.74
2022-10-06T13:21:56.085Z,24.16
2022-10-06T13:26:48.634Z,24.09
2022-10-06T13:31:41.149Z,24.35
2022-10-06T13:36:33.537Z,24.48
2022-10-06T13:41:25.942Z,24.5
2022-10-06T13:46:15.631Z,23.93
2022-10-06T13:51:09.097Z,23.11
2022-10-06T13:56:01.600Z,22.97
2022-10-06T14:00:54.325Z,22.98
2022-10-06T14:05:46.890Z,23.01
2022-10-06T14:10:33.629Z,22.93
2022-10-06T14:15:27.343Z,22.95
2022-10-06T14:20:21.140Z,22.94
2022-10-06T14:25:13.783Z,22.9
2022-10-06T14:30:06.509Z,22.92
2022-10-06T14:34:59.143Z,22.92
2022-10-06T14:39:51.764Z,22.93
2022-10-06T14:44:44.326Z,22.91
2022-10-06T14:49:37.068Z,22.92
2022-10-06T14:54:29.722Z,22.93
2022-10-06T14:59:22.368Z,22.91
2022-10-06T15:04:14.935Z,22.91
2022-10-06T15:09:07.399Z,22.92
2022-10-06T15:14:00.034Z,22.93
2022-10-06T15:18:52.575Z,22.93
2022-10-06T15:23:45.293Z,22.89
2022-10-06T15:28:38.001Z,22.89
2022-10-06T15:33:30.499Z,22.87
2022-10-06T15:38:23.386Z,22.86
2022-10-06T15:43:15.999Z,22.83
2022-10-06T15:48:08.436Z,22.81
2022-10-06T15:53:00.981Z,22.79
2022-10-06T15:57:53.642Z,22.77
2022-10-06T16:02:46.386Z,22.72
2022-10-06T16:07:38.847Z,22.72
2022-10-06T16:12:31.368Z,22.71
2022-10-06T16:17:24.514Z,22.9
2022-10-06T16:22:17.296Z,23.1
2022-10-06T16:27:10.113Z,23.11
2022-10-06T16:32:02.733Z,22.99
2022-10-06T16:36:55.444Z,23.23
2022-10-06T16:41:48.178Z,22.93
2022-10-06T16:46:40.972Z,22.82
2022-10-06T16:51:33.707Z,22.83
2022-10-06T16:56:26.251Z,22.83
2022-10-06T17:01:18.944Z,23.05
2022-10-06T17:06:11.679Z,22.99
2022-10-06T17:11:04.456Z,22.96
2022-10-06T17:15:57.118Z,22.92
2022-10-06T17:20:49.783Z,23.02
2022-10-06T17:25:42.452Z,22.99
2022-10-06T17:30:35.119Z,23.02
2022-10-06T17:35:27.608Z,22.95
2022-10-06T17:40:20.409Z,23.23
2022-10-06T17:50:05.569Z,23.07
2022-10-06T17:54:58.138Z,22.9
2022-10-06T17:59:50.871Z,23.14
2022-10-06T18:04:43.342Z,23.03
2022-10-06T18:09:36.225Z,23.25
2022-10-06T18:14:29.062Z,23.29
2022-10-06T18:19:21.000Z,23.26
2022-10-06T18:24:13.307Z,23.21
2022-10-06T18:29:05.814Z,23.12
2022-10-06T18:38:51.150Z,23.14
2022-10-06T18:43:43.461Z,23.09
2022-10-06T18:48:37.280Z,23.11
2022-10-06T18:53:28.709Z,23.08
2022-10-06T18:58:21.295Z,22.99
2022-10-06T19:03:13.942Z,22.87
2022-10-06T19:08:06.467Z,22.88
2022-10-06T19:12:58.868Z,22.84
2022-10-06T19:17:51.461Z,22.78
2022-10-06T19:22:44.230Z,22.72
2022-10-06T19:27:36.618Z,22.72
2022-10-06T19:32:29.236Z,22.72
2022-10-06T19:37:21.764Z,22.69
2022-10-06T19:42:14.411Z,22.54
2022-10-06T19:47:06.925Z,22.55
2022-10-06T19:51:59.288Z,22.55
2022-10-06T19:56:52.132Z,22.43
2022-10-06T20:01:44.733Z,22.37
2022-10-06T20:06:37.254Z,22.35
2022-10-06T20:11:29.676Z,22.34
2022-10-06T20:16:22.589Z,22.25
2022-10-06T20:21:15.464Z,22.2
2022-10-06T20:26:07.808Z,22.14
2022-10-06T20:31:00.130Z,22.12
2022-10-06T20:35:52.721Z,22.06
2022-10-06T20:40:44.754Z,22.05
2022-10-06T20:45:37.325Z,22.03
2022-10-06T20:50:29.985Z,22.01
2022-10-06T20:55:22.752Z,21.93
2022-10-06T21:00:15.208Z,21.89
2022-10-06T21:05:07.633Z,21.91
2022-10-06T21:10:00.236Z,21.97
2022-10-06T21:14:53.049Z,21.91
2022-10-06T21:19:45.539Z,21.91
2022-10-06T21:24:38.336Z,21.86
2022-10-06T21:29:30.914Z,21.85
2022-10-06T21:34:23.552Z,21.88
2022-10-06T21:39:16.217Z,21.76
2022-10-06T21:44:08.814Z,21.74
2022-10-06T21:49:01.023Z,21.77
2022-10-06T21:53:53.852Z,21.76
2022-10-06T21:58:46.364Z,21.75
2022-10-06T22:03:38.890Z,21.69
2022-10-06T22:08:31.569Z,21.69
2022-10-06T22:13:24.103Z,21.65
2022-10-06T22:18:16.808Z,21.71
2022-10-06T22:23:09.298Z,21.71
2022-10-06T22:28:01.873Z,21.64
2022-10-06T22:32:54.343Z,21.62
2022-10-06T22:37:47.076Z,21.64
2022-10-06T22:42:39.329Z,21.59
2022-10-06T22:47:31.850Z,21.6
2022-10-06T22:52:24.454Z,21.59
2022-10-06T22:57:16.962Z,21.55
2022-10-06T23:02:09.180Z,21.55
2022-10-06T23:07:01.520Z,21.53
2022-10-06T23:11:54.066Z,21.54
2022-10-06T23:16:46.560Z,21.49
2022-10-06T23:26:31.823Z,21.45
2022-10-06T23:31:24.578Z,21.46
2022-10-06T23:36:17.131Z,21.44
2022-10-06T23:41:09.835Z,21.42
2022-10-06T23:46:02.357Z,21.42
2022-10-06T23:50:54.964Z,21.41
2022-10-06T23:55:47.563Z,21.4
